Pittsburg, Oklahoma
Current Conditions -  °F | °C
As of 1:53 AM on Friday 19 Dec 2014 (Local Time) from KMLC Reporting Station
Overcast Overcast  
Wind Chill: 38°   Ceiling: 1100
Heat Index: 42°   Visibility: 8mi
Dew Point: 39°   Wind: 7mph
Humidity: 89%   Direction: 30°NNE
Pressure: 30.19"   Gusts: NA
Location:  34.71°N, 95.85°W
Report Text: KMLC 190753Z AUTO 03006KT 8SM OVC011 06/04 A3019 RMK AO2 SLP225 T00560039
Loading
Personal Weather Stations






























Interactive Weather Map New forecast layout! Learn more

10-Day Weather Forecast

Advertisements
Track Severe Weather on mobile